Terminal Aerodrome Forecast
Issued by NWS

Home | Current Version | Previous Version | Graphics & Text | Print | Product List | Glossary On
Versions: 1 2 3 4 5 6 7 8 9 10 11 12 13 14 15 16
000
FTUS43 KMPX 190520
TAFRNH
TAF
KRNH 190520Z 1906/2006 28007KT P6SM SKC
     FM190800 VRB03KT P6SM SKC
     FM191800 19008KT P6SM SKC
     FM200300 17006KT P6SM FEW250 WS020/20040KT=

USA.gov is the U.S. government's official web portal to all federal, state and local government web resources and services.